Tuesday, June 19, 2018, 12:59 AM EDT
Back to Local

KWRI, Mcguire Air Force Base

Location: Trenton, NJ, United States Lat: 40.017
Local Time: 12:59 AM EDT ( 4:59 GMT) Lon: -74.6
Time Zone: US/Eastern Elev: 134 ft

Show me the last for .
Show Decoded

2018-06-18 23:56 METAR KWRI 190356Z 22008KT 10SM CLR 24/22 A2980 RMK AO2A SLP090 T02420219 $ =
2018-06-18 22:56 METAR KWRI 190256Z 21003KT 10SM SCT140 SCT170 24/22 A2983 RMK AO2A RAE40 TSE08
                 SLP100 P0002 60002 T02380222 50007 $ =
2018-06-18 22:43 METAR KWRI 190243Z 22007KT 10SM FEW028 SCT120 24/23 A2983 RMK AO2A RAE40 TSE08
                 SLP100 $ =
2018-06-18 22:40 METAR KWRI 190240Z 22007KT 10SM FEW028 SCT120 24/23 A2983 RMK AO2A RAE40 TSE08
                 SLP100 $ =
2018-06-18 22:17 METAR KWRI 190217Z 25010KT 10SM RA SCT006 BKN120 25/23 A2984 RMK AO2A TSE08
                 PRESFR SLP103 $ =
2018-06-18 22:08 METAR KWRI 190208Z 26010KT 10SM -RA VCTS BKN038 BKN130 26/22 A2986 RMK AO2A
                 TSE08 SLP110 $ =
2018-06-18 21:56 METAR KWRI 190156Z 24011KT 10SM -TSRA FEW038 FEW048 SCT055 SCT130 27/21 A2985
                 RMK AO2A RAB18 TSB30 SLP107 P0000 T02670207 $ =
2018-06-18 21:42 METAR KWRI 190142Z 28004KT 10SM -TSRA FEW039 SCT048 SCT055 BKN070 27/20 A2986
                 RMK AO2A RAB18 TSB30 SLP110 $ =
2018-06-18 21:30 METAR KWRI 190130Z 27004KT 10SM -TSRA SCT055 BKN070 26/21 A2985 RMK LTG DSNT
                 N-NE AND W RAB18TSB30 SLP107 $ =
2018-06-18 21:18 METAR KWRI 190118Z 23006KT 10SM -RA SCT070 27/21 A2984 RMK AO2A LTG DSNT N RAB18
                 SLP103 $ =
2018-06-18 20:56 METAR KWRI 190056Z 22007KT 10SM CLR 27/21 A2983 RMK AO2A LTG DSNT N SLP100
                 T02720207 $ =
2018-06-18 19:56 METAR KWRI 182356Z 22010KT 10SM CLR 28/21 A2980 RMK AO2A SLP090 T02830205 10332
                 20283 56018 $ =
2018-06-18 18:56 METAR KWRI 182256Z 22012KT 10SM CLR 30/22 A2981 RMK AO2A SLP093 T03020215 $ =
2018-06-18 17:56 METAR KWRI 182156Z 23012KT 10SM CLR 32/22 A2983 RMK AO2A SLP100 T03190217 $ =
2018-06-18 16:56 METAR KWRI 182056Z 23012KT 10SM CLR 33/22 A2986 RMK AO2A SLP110 T03250216 57025
                 $ =
2018-06-18 15:56 METAR KWRI 181956Z 23015KT 10SM CLR 33/21 A2988 RMK AO2A SLP117 T03270212 $ =
2018-06-18 14:56 METAR KWRI 181856Z COR 24012KT 10SM CLR 33/21 A2990 RMK AO2A SLP124 T03300211 $
                 =

Support USWX by starting your Amazon purchase here.